sensor_id;sensor_type;location;lat;lon;timestamp;pressure;altitude;pressure_sealevel;temperature;humidity
19576;BME280;41589;51.196;7.074;2023-05-03T00:04:38;100071.16;;;8.92;47.09
19576;BME280;41589;51.196;7.074;2023-05-03T00:09:39;100080.88;;;8.87;46.77
19576;BME280;41589;51.196;7.074;2023-05-03T00:14:39;100080.56;;;8.82;47.03
19576;BME280;41589;51.196;7.074;2023-05-03T00:19:40;100060.25;;;8.74;47.10
19576;BME280;41589;51.196;7.074;2023-05-03T00:24:41;100059.16;;;8.68;46.76
19576;BME280;41589;51.196;7.074;2023-05-03T00:29:42;100064.41;;;8.66;47.14
19576;BME280;41589;51.196;7.074;2023-05-03T00:34:42;100073.38;;;8.57;47.34
19576;BME280;41589;51.196;7.074;2023-05-03T00:39:42;100066.53;;;8.58;47.34
19576;BME280;41589;51.196;7.074;2023-05-03T00:44:43;100068.97;;;8.56;47.68
19576;BME280;41589;51.196;7.074;2023-05-03T00:49:43;100067.88;;;8.50;47.70
19576;BME280;41589;51.196;7.074;2023-05-03T00:54:44;100070.31;;;8.48;48.03
19576;BME280;41589;51.196;7.074;2023-05-03T00:59:45;100073.13;;;8.48;47.41
19576;BME280;41589;51.196;7.074;2023-05-03T01:04:45;100071.97;;;8.46;47.82
19576;BME280;41589;51.196;7.074;2023-05-03T01:09:58;100065.22;;;8.39;47.95
19576;BME280;41589;51.196;7.074;2023-05-03T01:15:24;100060.06;;;8.38;47.95
19576;BME280;41589;51.196;7.074;2023-05-03T01:20:29;100070.47;;;8.37;47.66
19576;BME280;41589;51.196;7.074;2023-05-03T01:25:30;100056.09;;;8.35;47.77
19576;BME280;41589;51.196;7.074;2023-05-03T01:30:32;100048.63;;;8.25;48.32
19576;BME280;41589;51.196;7.074;2023-05-03T01:40:52;100071.06;;;8.25;48.34
19576;BME280;41589;51.196;7.074;2023-05-03T01:45:53;100075.47;;;8.26;48.29
19576;BME280;41589;51.196;7.074;2023-05-03T01:50:53;100077.91;;;8.24;48.07
19576;BME280;41589;51.196;7.074;2023-05-03T01:55:54;100076.25;;;8.27;48.00
19576;BME280;41589;51.196;7.074;2023-05-03T02:00:55;100074.44;;;8.13;48.34
19576;BME280;41589;51.196;7.074;2023-05-03T02:05:55;100076.75;;;8.18;48.34
19576;BME280;41589;51.196;7.074;2023-05-03T02:10:56;100082.72;;;8.20;48.35
19576;BME280;41589;51.196;7.074;2023-05-03T02:15:56;100077.13;;;8.20;48.13
19576;BME280;41589;51.196;7.074;2023-05-03T02:20:56;100091.56;;;8.22;48.30
19576;BME280;41589;51.196;7.074;2023-05-03T02:25:58;100094.88;;;8.13;48.20
19576;BME280;41589;51.196;7.074;2023-05-03T02:30:58;100102.47;;;8.13;48.30
19576;BME280;41589;51.196;7.074;2023-05-03T02:35:59;100102.56;;;8.06;48.31
19576;BME280;41589;51.196;7.074;2023-05-03T02:41:00;100109.78;;;8.07;48.69
19576;BME280;41589;51.196;7.074;2023-05-03T02:46:01;100103.84;;;8.01;48.59
19576;BME280;41589;51.196;7.074;2023-05-03T02:51:02;100100.34;;;7.94;48.53
19576;BME280;41589;51.196;7.074;2023-05-03T02:56:02;100099.91;;;7.95;48.49
19576;BME280;41589;51.196;7.074;2023-05-03T03:01:03;100108.66;;;8.01;48.91
19576;BME280;41589;51.196;7.074;2023-05-03T03:06:04;100097.50;;;7.97;48.71
19576;BME280;41589;51.196;7.074;2023-05-03T03:11:07;100094.38;;;7.92;48.74
19576;BME280;41589;51.196;7.074;2023-05-03T03:16:08;100093.63;;;7.88;49.26
19576;BME280;41589;51.196;7.074;2023-05-03T03:21:09;100074.94;;;7.77;49.09
19576;BME280;41589;51.196;7.074;2023-05-03T03:26:10;100061.75;;;7.74;49.00
19576;BME280;41589;51.196;7.074;2023-05-03T03:31:11;100073.47;;;7.69;49.22
19576;BME280;41589;51.196;7.074;2023-05-03T03:36:13;100076.28;;;7.66;49.27
19576;BME280;41589;51.196;7.074;2023-05-03T03:41:16;100062.25;;;7.69;49.39
19576;BME280;41589;51.196;7.074;2023-05-03T03:46:18;100062.28;;;7.66;48.99
19576;BME280;41589;51.196;7.074;2023-05-03T03:51:22;100057.00;;;7.71;49.37
19576;BME280;41589;51.196;7.074;2023-05-03T03:56:23;100067.94;;;7.62;49.30
19576;BME280;41589;51.196;7.074;2023-05-03T04:01:25;100062.47;;;7.51;49.48
19576;BME280;41589;51.196;7.074;2023-05-03T04:06:29;100058.94;;;7.44;49.54
19576;BME280;41589;51.196;7.074;2023-05-03T04:11:33;100057.38;;;7.43;49.63
19576;BME280;41589;51.196;7.074;2023-05-03T04:16:35;100052.22;;;7.38;50.12
19576;BME280;41589;51.196;7.074;2023-05-03T04:21:38;100043.78;;;7.41;50.41
19576;BME280;41589;51.196;7.074;2023-05-03T04:26:38;100024.09;;;7.48;50.27
19576;BME280;41589;51.196;7.074;2023-05-03T04:31:46;100033.28;;;7.49;50.01
19576;BME280;41589;51.196;7.074;2023-05-03T04:36:49;100033.69;;;7.47;50.07
19576;BME280;41589;51.196;7.074;2023-05-03T04:41:50;100047.25;;;7.52;49.99
19576;BME280;41589;51.196;7.074;2023-05-03T04:46:51;100063.84;;;7.67;50.22
19576;BME280;41589;51.196;7.074;2023-05-03T04:51:52;100071.47;;;7.66;50.36
19576;BME280;41589;51.196;7.074;2023-05-03T04:56:53;100083.09;;;7.65;50.29
19576;BME280;41589;51.196;7.074;2023-05-03T05:01:54;100087.13;;;7.64;50.41
19576;BME280;41589;51.196;7.074;2023-05-03T05:06:59;100088.66;;;7.68;51.01
19576;BME280;41589;51.196;7.074;2023-05-03T05:12:03;100083.44;;;7.70;51.08
19576;BME280;41589;51.196;7.074;2023-05-03T05:17:09;100090.84;;;8.15;50.93
19576;BME280;41589;51.196;7.074;2023-05-03T05:22:10;100088.72;;;8.49;50.47
19576;BME280;41589;51.196;7.074;2023-05-03T05:27:17;100092.56;;;8.59;49.64
19576;BME280;41589;51.196;7.074;2023-05-03T05:32:18;100097.53;;;8.98;49.41
19576;BME280;41589;51.196;7.074;2023-05-03T05:37:23;100108.00;;;9.17;48.96
19576;BME280;41589;51.196;7.074;2023-05-03T05:42:24;100108.91;;;9.54;49.43
19576;BME280;41589;51.196;7.074;2023-05-03T05:47:26;100114.28;;;9.88;48.51
19576;BME280;41589;51.196;7.074;2023-05-03T05:52:34;100113.81;;;10.09;48.24
19576;BME280;41589;51.196;7.074;2023-05-03T05:57:37;100120.19;;;10.30;47.67
19576;BME280;41589;51.196;7.074;2023-05-03T06:02:38;100118.78;;;10.70;46.70
19576;BME280;41589;51.196;7.074;2023-05-03T06:07:49;100134.19;;;10.98;46.31
19576;BME280;41589;51.196;7.074;2023-05-03T06:12:51;100124.03;;;11.17;45.65
19576;BME280;41589;51.196;7.074;2023-05-03T06:24:05;100131.94;;;11.97;45.33
19576;BME280;41589;51.196;7.074;2023-05-03T06:29:12;100130.25;;;12.25;44.49
19576;BME280;41589;51.196;7.074;2023-05-03T06:34:40;100139.78;;;12.69;44.10
19576;BME280;41589;51.196;7.074;2023-05-03T06:39:40;100127.25;;;12.70;42.37
19576;BME280;41589;51.196;7.074;2023-05-03T06:44:41;100134.69;;;12.38;41.29
19576;BME280;41589;51.196;7.074;2023-05-03T06:49:45;100135.81;;;12.79;41.19
19576;BME280;41589;51.196;7.074;2023-05-03T06:54:55;100136.50;;;12.45;40.43
19576;BME280;41589;51.196;7.074;2023-05-03T06:59:58;100132.28;;;11.99;40.94
19576;BME280;41589;51.196;7.074;2023-05-03T07:04:59;100147.13;;;12.54;40.66
19576;BME280;41589;51.196;7.074;2023-05-03T07:10:05;100134.25;;;12.78;39.76
19576;BME280;41589;51.196;7.074;2023-05-03T07:15:09;100137.03;;;12.27;39.38
19576;BME280;41589;51.196;7.074;2023-05-03T07:20:12;100134.72;;;12.51;40.52
19576;BME280;41589;51.196;7.074;2023-05-03T07:25:13;100137.41;;;12.67;40.19
19576;BME280;41589;51.196;7.074;2023-05-03T07:30:25;100136.94;;;12.69;40.15
19576;BME280;41589;51.196;7.074;2023-05-03T07:35:29;100122.38;;;12.83;39.29
19576;BME280;41589;51.196;7.074;2023-05-03T07:40:30;100114.88;;;12.89;38.86
19576;BME280;41589;51.196;7.074;2023-05-03T07:45:35;100114.00;;;12.92;39.58
19576;BME280;41589;51.196;7.074;2023-05-03T07:50:36;100097.78;;;13.06;38.13
19576;BME280;41589;51.196;7.074;2023-05-03T07:55:39;100095.88;;;13.37;38.10
19576;BME280;41589;51.196;7.074;2023-05-03T08:00:42;100094.69;;;13.25;38.18
19576;BME280;41589;51.196;7.074;2023-05-03T08:05:45;100089.28;;;13.75;38.10
19576;BME280;41589;51.196;7.074;2023-05-03T08:10:48;100085.59;;;13.87;36.82
19576;BME280;41589;51.196;7.074;2023-05-03T08:15:53;100098.59;;;14.06;36.25
19576;BME280;41589;51.196;7.074;2023-05-03T08:20:54;100105.06;;;13.85;37.77
19576;BME280;41589;51.196;7.074;2023-05-03T08:26:02;100094.63;;;14.04;37.47
19576;BME280;41589;51.196;7.074;2023-05-03T08:31:04;100086.59;;;14.73;37.60
19576;BME280;41589;51.196;7.074;2023-05-03T08:36:12;100091.72;;;15.24;37.25
19576;BME280;41589;51.196;7.074;2023-05-03T08:41:37;100080.81;;;15.87;35.62
19576;BME280;41589;51.196;7.074;2023-05-03T08:46:50;100086.97;;;15.85;35.08
19576;BME280;41589;51.196;7.074;2023-05-03T08:51:58;100075.63;;;15.85;35.13
19576;BME280;41589;51.196;7.074;2023-05-03T08:57:00;100093.59;;;15.18;33.99
19576;BME280;41589;51.196;7.074;2023-05-03T09:02:01;100081.91;;;14.80;33.96
19576;BME280;41589;51.196;7.074;2023-05-03T09:07:21;100074.53;;;15.37;34.98
19576;BME280;41589;51.196;7.074;2023-05-03T09:12:36;100088.25;;;15.75;33.94
19576;BME280;41589;51.196;7.074;2023-05-03T09:17:43;100077.47;;;15.98;33.55
19576;BME280;41589;51.196;7.074;2023-05-03T09:22:52;100060.69;;;16.18;33.02
19576;BME280;41589;51.196;7.074;2023-05-03T09:28:02;100071.13;;;16.87;33.17
19576;BME280;41589;51.196;7.074;2023-05-03T09:33:27;100057.63;;;17.36;31.77
19576;BME280;41589;51.196;7.074;2023-05-03T09:38:32;100056.50;;;16.94;31.34
19576;BME280;41589;51.196;7.074;2023-05-03T09:43:51;100053.53;;;17.51;31.57
19576;BME280;41589;51.196;7.074;2023-05-03T09:48:56;100042.38;;;17.77;31.28
19576;BME280;41589;51.196;7.074;2023-05-03T09:53:57;100040.91;;;17.82;30.07
19576;BME280;41589;51.196;7.074;2023-05-03T09:59:06;100050.47;;;17.01;31.09
19576;BME280;41589;51.196;7.074;2023-05-03T10:04:17;100042.00;;;17.31;29.98
19576;BME280;41589;51.196;7.074;2023-05-03T10:09:23;100037.69;;;17.59;30.39
19576;BME280;41589;51.196;7.074;2023-05-03T10:14:25;100025.88;;;17.96;29.58
19576;BME280;41589;51.196;7.074;2023-05-03T10:25:11;100009.75;;;18.58;29.13
19576;BME280;41589;51.196;7.074;2023-05-03T10:30:37;100012.91;;;19.00;27.94
19576;BME280;41589;51.196;7.074;2023-05-03T10:35:52;100009.53;;;18.61;27.64
19576;BME280;41589;51.196;7.074;2023-05-03T10:41:07;99999.34;;;18.40;28.09
19576;BME280;41589;51.196;7.074;2023-05-03T10:46:09;99993.56;;;17.99;27.99
19576;BME280;41589;51.196;7.074;2023-05-03T10:57:01;99992.78;;;18.49;28.34
19576;BME280;41589;51.196;7.074;2023-05-03T11:02:03;99995.56;;;18.28;28.17
19576;BME280;41589;51.196;7.074;2023-05-03T11:07:03;100001.25;;;18.63;28.75
19576;BME280;41589;51.196;7.074;2023-05-03T11:12:07;99997.19;;;18.14;28.88
19576;BME280;41589;51.196;7.074;2023-05-03T11:17:22;99981.66;;;18.15;28.99
19576;BME280;41589;51.196;7.074;2023-05-03T11:22:28;99981.81;;;18.27;29.10
19576;BME280;41589;51.196;7.074;2023-05-03T11:27:29;99965.63;;;18.18;30.28
19576;BME280;41589;51.196;7.074;2023-05-03T11:32:31;99966.03;;;18.11;30.49
19576;BME280;41589;51.196;7.074;2023-05-03T11:37:32;99970.97;;;18.31;30.15
19576;BME280;41589;51.196;7.074;2023-05-03T11:42:33;99963.63;;;17.89;29.38
19576;BME280;41589;51.196;7.074;2023-05-03T11:47:34;99961.84;;;17.47;31.02
19576;BME280;41589;51.196;7.074;2023-05-03T11:52:36;99963.97;;;17.62;31.37
19576;BME280;41589;51.196;7.074;2023-05-03T11:57:37;99950.88;;;17.84;31.19
19576;BME280;41589;51.196;7.074;2023-05-03T12:02:38;99961.00;;;17.71;29.74
19576;BME280;41589;51.196;7.074;2023-05-03T12:07:39;99955.31;;;17.71;30.19
19576;BME280;41589;51.196;7.074;2023-05-03T12:12:39;99943.94;;;17.71;30.43
19576;BME280;41589;51.196;7.074;2023-05-03T12:17:40;99943.31;;;17.37;31.53
19576;BME280;41589;51.196;7.074;2023-05-03T12:22:42;99953.03;;;17.30;31.63
19576;BME280;41589;51.196;7.074;2023-05-03T12:27:43;99929.69;;;17.41;32.17
19576;BME280;41589;51.196;7.074;2023-05-03T12:32:43;99938.84;;;16.92;32.23
19576;BME280;41589;51.196;7.074;2023-05-03T12:37:43;99929.34;;;16.95;32.96
19576;BME280;41589;51.196;7.074;2023-05-03T12:42:44;99917.81;;;17.28;32.61
19576;BME280;41589;51.196;7.074;2023-05-03T12:47:44;99926.53;;;17.39;32.25
19576;BME280;41589;51.196;7.074;2023-05-03T12:52:45;99906.81;;;17.50;32.65
19576;BME280;41589;51.196;7.074;2023-05-03T12:57:45;99909.53;;;17.00;32.67
19576;BME280;41589;51.196;7.074;2023-05-03T13:02:45;99897.50;;;17.20;33.25
19576;BME280;41589;51.196;7.074;2023-05-03T13:07:46;99892.41;;;17.39;33.30
19576;BME280;41589;51.196;7.074;2023-05-03T13:12:47;99888.47;;;17.22;32.92
19576;BME280;41589;51.196;7.074;2023-05-03T13:17:48;99875.22;;;17.19;33.95
19576;BME280;41589;51.196;7.074;2023-05-03T13:22:48;99863.06;;;17.33;32.81
19576;BME280;41589;51.196;7.074;2023-05-03T13:27:48;99853.41;;;17.45;33.75
19576;BME280;41589;51.196;7.074;2023-05-03T13:32:51;99856.28;;;17.60;33.60
19576;BME280;41589;51.196;7.074;2023-05-03T13:37:51;99853.75;;;17.18;34.41
19576;BME280;41589;51.196;7.074;2023-05-03T13:42:52;99843.88;;;17.48;33.99
19576;BME280;41589;51.196;7.074;2023-05-03T13:47:52;99843.97;;;17.54;33.11
19576;BME280;41589;51.196;7.074;2023-05-03T13:52:52;99820.84;;;17.46;33.35
19576;BME280;41589;51.196;7.074;2023-05-03T13:57:53;99823.97;;;17.48;33.31
19576;BME280;41589;51.196;7.074;2023-05-03T14:02:53;99813.09;;;17.62;33.19
19576;BME280;41589;51.196;7.074;2023-05-03T14:07:54;99803.41;;;17.74;33.54
19576;BME280;41589;51.196;7.074;2023-05-03T14:12:55;99803.50;;;18.00;32.97
19576;BME280;41589;51.196;7.074;2023-05-03T14:17:57;99787.31;;;18.32;32.97
19576;BME280;41589;51.196;7.074;2023-05-03T14:22:57;99786.78;;;18.07;32.63
19576;BME280;41589;51.196;7.074;2023-05-03T14:27:57;99790.50;;;18.39;32.53
19576;BME280;41589;51.196;7.074;2023-05-03T14:32:58;99773.13;;;18.58;32.11
19576;BME280;41589;51.196;7.074;2023-05-03T14:37:58;99776.31;;;18.65;31.75
19576;BME280;41589;51.196;7.074;2023-05-03T14:42:58;99766.47;;;18.66;32.04
19576;BME280;41589;51.196;7.074;2023-05-03T14:47:58;99765.28;;;18.53;31.75
19576;BME280;41589;51.196;7.074;2023-05-03T14:52:59;99756.44;;;18.25;31.47
19576;BME280;41589;51.196;7.074;2023-05-03T14:57:59;99753.97;;;18.38;31.87
19576;BME280;41589;51.196;7.074;2023-05-03T15:03:00;99754.56;;;18.22;32.08
19576;BME280;41589;51.196;7.074;2023-05-03T15:08:00;99736.91;;;18.17;32.66
19576;BME280;41589;51.196;7.074;2023-05-03T15:13:01;99741.09;;;18.42;32.70
19576;BME280;41589;51.196;7.074;2023-05-03T15:18:01;99734.84;;;18.18;32.73
19576;BME280;41589;51.196;7.074;2023-05-03T15:23:02;99731.88;;;18.07;32.76
19576;BME280;41589;51.196;7.074;2023-05-03T15:28:03;99733.28;;;18.17;32.59
19576;BME280;41589;51.196;7.074;2023-05-03T15:33:04;99728.28;;;18.32;32.51
19576;BME280;41589;51.196;7.074;2023-05-03T15:38:04;99733.47;;;18.34;32.92
19576;BME280;41589;51.196;7.074;2023-05-03T15:43:05;99727.91;;;18.45;32.15
19576;BME280;41589;51.196;7.074;2023-05-03T15:48:06;99734.53;;;18.36;32.60
19576;BME280;41589;51.196;7.074;2023-05-03T15:53:06;99727.59;;;18.17;32.38
19576;BME280;41589;51.196;7.074;2023-05-03T15:58:07;99731.31;;;18.03;33.18
19576;BME280;41589;51.196;7.074;2023-05-03T16:03:08;99728.75;;;17.84;33.25
19576;BME280;41589;51.196;7.074;2023-05-03T16:08:08;99731.97;;;17.72;33.45
19576;BME280;41589;51.196;7.074;2023-05-03T16:13:09;99730.44;;;17.56;33.70
19576;BME280;41589;51.196;7.074;2023-05-03T16:18:10;99725.34;;;17.45;34.03
19576;BME280;41589;51.196;7.074;2023-05-03T16:23:11;99733.22;;;17.36;34.43
19576;BME280;41589;51.196;7.074;2023-05-03T16:28:11;99720.25;;;17.14;34.24
19576;BME280;41589;51.196;7.074;2023-05-03T16:33:12;99719.28;;;17.02;35.03
19576;BME280;41589;51.196;7.074;2023-05-03T16:38:12;99715.63;;;17.17;35.11
19576;BME280;41589;51.196;7.074;2023-05-03T16:43:12;99717.22;;;17.18;34.49
19576;BME280;41589;51.196;7.074;2023-05-03T16:48:14;99716.84;;;16.95;34.82
19576;BME280;41589;51.196;7.074;2023-05-03T16:53:15;99716.06;;;16.95;34.93
19576;BME280;41589;51.196;7.074;2023-05-03T16:58:16;99707.84;;;16.82;34.86
19576;BME280;41589;51.196;7.074;2023-05-03T17:03:17;99705.91;;;16.88;35.04
19576;BME280;41589;51.196;7.074;2023-05-03T17:08:17;99700.91;;;16.68;35.55
19576;BME280;41589;51.196;7.074;2023-05-03T17:13:18;99708.25;;;16.45;35.65
19576;BME280;41589;51.196;7.074;2023-05-03T17:18:18;99697.25;;;16.53;35.57
19576;BME280;41589;51.196;7.074;2023-05-03T17:23:18;99695.31;;;16.44;36.20
19576;BME280;41589;51.196;7.074;2023-05-03T17:28:19;99701.00;;;16.59;36.03
19576;BME280;41589;51.196;7.074;2023-05-03T17:33:20;99686.50;;;16.72;35.99
19576;BME280;41589;51.196;7.074;2023-05-03T17:38:21;99697.09;;;16.71;35.81
19576;BME280;41589;51.196;7.074;2023-05-03T17:43:21;99693.25;;;16.45;35.90
19576;BME280;41589;51.196;7.074;2023-05-03T17:48:22;99698.34;;;16.41;35.90
19576;BME280;41589;51.196;7.074;2023-05-03T17:53:22;99697.16;;;16.18;36.20
19576;BME280;41589;51.196;7.074;2023-05-03T17:58:22;99689.03;;;16.26;35.94
19576;BME280;41589;51.196;7.074;2023-05-03T18:03:23;99686.81;;;17.44;35.55
19576;BME280;41589;51.196;7.074;2023-05-03T18:08:24;99692.84;;;18.39;32.87
19576;BME280;41589;51.196;7.074;2023-05-03T18:13:25;99694.50;;;17.79;33.11
19576;BME280;41589;51.196;7.074;2023-05-03T18:18:26;99702.16;;;16.97;34.11
19576;BME280;41589;51.196;7.074;2023-05-03T18:23:29;99695.09;;;16.33;35.31
19576;BME280;41589;51.196;7.074;2023-05-03T18:28:30;99688.50;;;15.98;35.87
19576;BME280;41589;51.196;7.074;2023-05-03T18:33:31;99697.78;;;15.83;36.09
19576;BME280;41589;51.196;7.074;2023-05-03T18:38:32;99694.44;;;15.37;36.67
19576;BME280;41589;51.196;7.074;2023-05-03T18:43:33;99701.28;;;15.30;37.09
19576;BME280;41589;51.196;7.074;2023-05-03T18:48:35;99695.59;;;14.97;37.76
19576;BME280;41589;51.196;7.074;2023-05-03T18:53:36;99701.19;;;14.83;38.03
19576;BME280;41589;51.196;7.074;2023-05-03T18:58:39;99687.31;;;14.85;37.84
19576;BME280;41589;51.196;7.074;2023-05-03T19:03:39;99700.88;;;14.81;37.89
19576;BME280;41589;51.196;7.074;2023-05-03T19:08:39;99697.75;;;14.79;37.88
19576;BME280;41589;51.196;7.074;2023-05-03T19:13:43;99698.56;;;14.70;37.64
19576;BME280;41589;51.196;7.074;2023-05-03T19:18:45;99697.09;;;14.65;37.86
19576;BME280;41589;51.196;7.074;2023-05-03T19:23:48;99693.66;;;14.61;37.90
19576;BME280;41589;51.196;7.074;2023-05-03T19:28:48;99694.47;;;14.53;38.05
19576;BME280;41589;51.196;7.074;2023-05-03T19:33:49;99700.66;;;14.42;38.18
19576;BME280;41589;51.196;7.074;2023-05-03T19:38:49;99700.31;;;14.49;38.00
19576;BME280;41589;51.196;7.074;2023-05-03T19:43:52;99690.59;;;14.41;38.12
19576;BME280;41589;51.196;7.074;2023-05-03T19:48:56;99702.09;;;14.19;38.87
19576;BME280;41589;51.196;7.074;2023-05-03T19:53:59;99696.63;;;14.06;38.77
19576;BME280;41589;51.196;7.074;2023-05-03T19:59:00;99697.88;;;14.05;39.14
19576;BME280;41589;51.196;7.074;2023-05-03T20:04:00;99704.16;;;14.00;38.93
19576;BME280;41589;51.196;7.074;2023-05-03T20:09:00;99694.09;;;13.90;38.96
19576;BME280;41589;51.196;7.074;2023-05-03T20:14:01;99698.50;;;13.82;39.34
19576;BME280;41589;51.196;7.074;2023-05-03T20:19:01;99701.50;;;13.87;38.97
19576;BME280;41589;51.196;7.074;2023-05-03T20:24:03;99703.53;;;13.87;38.94
19576;BME280;41589;51.196;7.074;2023-05-03T20:29:03;99700.72;;;13.78;39.08
19576;BME280;41589;51.196;7.074;2023-05-03T20:34:04;99693.78;;;13.97;38.68
19576;BME280;41589;51.196;7.074;2023-05-03T20:39:05;99685.00;;;13.95;38.69
19576;BME280;41589;51.196;7.074;2023-05-03T20:44:05;99682.63;;;14.03;38.74
19576;BME280;41589;51.196;7.074;2023-05-03T20:49:06;99690.81;;;14.01;38.55
19576;BME280;41589;51.196;7.074;2023-05-03T20:54:06;99691.75;;;13.98;38.79
19576;BME280;41589;51.196;7.074;2023-05-03T20:59:07;99683.25;;;13.79;38.98
19576;BME280;41589;51.196;7.074;2023-05-03T21:04:08;99682.94;;;13.68;39.04
19576;BME280;41589;51.196;7.074;2023-05-03T21:09:08;99671.59;;;13.59;39.29
19576;BME280;41589;51.196;7.074;2023-05-03T21:14:10;99671.94;;;13.61;39.36
19576;BME280;41589;51.196;7.074;2023-05-03T21:19:10;99678.84;;;13.69;39.39
19576;BME280;41589;51.196;7.074;2023-05-03T21:24:11;99668.75;;;13.59;39.30
19576;BME280;41589;51.196;7.074;2023-05-03T21:29:11;99663.88;;;13.50;39.44
19576;BME280;41589;51.196;7.074;2023-05-03T21:34:12;99658.91;;;13.64;39.16
19576;BME280;41589;51.196;7.074;2023-05-03T21:39:13;99647.88;;;13.56;39.37
19576;BME280;41589;51.196;7.074;2023-05-03T21:44:14;99640.81;;;13.43;39.48
19576;BME280;41589;51.196;7.074;2023-05-03T21:49:14;99650.22;;;13.49;39.62
19576;BME280;41589;51.196;7.074;2023-05-03T21:54:15;99636.56;;;13.47;39.69
19576;BME280;41589;51.196;7.074;2023-05-03T21:59:16;99627.91;;;13.42;39.80
19576;BME280;41589;51.196;7.074;2023-05-03T22:04:16;99620.38;;;13.39;39.83
19576;BME280;41589;51.196;7.074;2023-05-03T22:09:17;99626.50;;;13.37;39.88
19576;BME280;41589;51.196;7.074;2023-05-03T22:14:17;99628.69;;;13.33;40.06
19576;BME280;41589;51.196;7.074;2023-05-03T22:19:18;99622.09;;;13.27;40.36
19576;BME280;41589;51.196;7.074;2023-05-03T22:24:18;99627.91;;;13.23;40.38
19576;BME280;41589;51.196;7.074;2023-05-03T22:29:18;99633.38;;;13.18;40.33
19576;BME280;41589;51.196;7.074;2023-05-03T22:34:19;99618.94;;;13.25;40.41
19576;BME280;41589;51.196;7.074;2023-05-03T22:39:19;99630.84;;;13.20;40.62
19576;BME280;41589;51.196;7.074;2023-05-03T22:44:20;99623.16;;;13.20;40.69
19576;BME280;41589;51.196;7.074;2023-05-03T22:49:20;99612.03;;;13.17;40.55
19576;BME280;41589;51.196;7.074;2023-05-03T22:54:20;99621.13;;;13.12;40.73
19576;BME280;41589;51.196;7.074;2023-05-03T22:59:21;99626.78;;;13.12;40.63
19576;BME280;41589;51.196;7.074;2023-05-03T23:04:21;99621.75;;;13.16;40.90
19576;BME280;41589;51.196;7.074;2023-05-03T23:09:22;99609.66;;;13.06;40.91
19576;BME280;41589;51.196;7.074;2023-05-03T23:14:28;99612.31;;;13.10;40.88
19576;BME280;41589;51.196;7.074;2023-05-03T23:19:49;99610.63;;;13.12;40.69
19576;BME280;41589;51.196;7.074;2023-05-03T23:24:57;99600.69;;;13.08;40.83
19576;BME280;41589;51.196;7.074;2023-05-03T23:30:01;99589.56;;;13.04;40.80
19576;BME280;41589;51.196;7.074;2023-05-03T23:35:01;99587.34;;;12.99;40.76
19576;BME280;41589;51.196;7.074;2023-05-03T23:40:04;99588.47;;;13.01;40.84
19576;BME280;41589;51.196;7.074;2023-05-03T23:45:08;99579.00;;;12.95;40.91
19576;BME280;41589;51.196;7.074;2023-05-03T23:50:09;99582.63;;;12.96;41.01
19576;BME280;41589;51.196;7.074;2023-05-03T23:55:10;99574.00;;;12.90;40.94
